createdAt,value
2019-04-20T00:01:03.411Z,15.40
2019-04-20T00:03:38.298Z,17.10
2019-04-20T00:06:05.346Z,14.83
2019-04-20T00:08:38.225Z,12.77
2019-04-20T00:11:14.262Z,18.60
2019-04-20T00:13:48.733Z,14.27
2019-04-20T00:16:12.588Z,13.30
2019-04-20T00:18:48.430Z,14.03
2019-04-20T00:21:33.899Z,16.10
2019-04-20T00:24:15.757Z,11.63
2019-04-20T00:27:08.608Z,13.87
2019-04-20T00:29:30.905Z,16.67
2019-04-20T00:31:57.644Z,16.47
2019-04-20T00:34:23.016Z,14.13
2019-04-20T00:36:49.739Z,16.23
2019-04-20T00:39:20.605Z,9.87
2019-04-20T00:42:00.050Z,14.83
2019-04-20T00:44:28.724Z,14.93
2019-04-20T00:47:08.527Z,15.20
2019-04-20T00:49:41.257Z,16.93
2019-04-20T00:52:30.731Z,15.63
2019-04-20T00:54:30.999Z,14.07
2019-04-20T00:57:13.363Z,10.70
2019-04-20T00:59:55.302Z,17.63
2019-04-20T01:02:21.019Z,12.57
2019-04-20T01:05:00.031Z,13.90
2019-04-20T01:07:29.094Z,16.97
2019-04-20T01:10:11.050Z,13.03
2019-04-20T01:12:42.798Z,10.70
2019-04-20T01:15:24.550Z,15.10
2019-04-20T01:17:45.363Z,14.63
2019-04-20T01:20:15.725Z,11.80
2019-04-20T01:22:54.595Z,13.20
2019-04-20T01:25:26.443Z,12.90
2019-04-20T01:28:09.012Z,15.37
2019-04-20T01:30:30.198Z,14.27
2019-04-20T01:33:10.185Z,15.90
2019-04-20T01:35:44.087Z,13.97
2019-04-20T01:38:16.365Z,14.10
2019-04-20T01:40:29.897Z,13.87
2019-04-20T01:43:00.001Z,17.63
2019-04-20T01:45:35.511Z,17.80
2019-04-20T01:48:03.491Z,14.40
2019-04-20T01:50:37.127Z,16.03
2019-04-20T01:53:20.500Z,17.63
2019-04-20T01:55:53.064Z,14.73
2019-04-20T01:58:52.144Z,18.10
2019-04-20T02:01:27.407Z,18.93
2019-04-20T02:04:03.218Z,15.63
2019-04-20T02:06:39.881Z,21.73
2019-04-20T02:09:13.462Z,16.13
2019-04-20T02:11:43.592Z,16.73
2019-04-20T02:14:13.847Z,16.90
2019-04-20T02:16:49.615Z,18.00
2019-04-20T02:19:31.284Z,20.07
2019-04-20T02:22:04.059Z,17.23
2019-04-20T02:24:20.044Z,23.03
2019-04-20T02:26:51.890Z,17.43
2019-04-20T02:29:45.990Z,23.93
2019-04-20T02:35:39.697Z,24.97
2019-04-20T02:40:45.166Z,21.17
2019-04-20T02:43:05.479Z,22.50
2019-04-20T02:55:53.445Z,20.07
2019-04-20T02:58:14.897Z,21.20
2019-04-20T03:00:42.809Z,22.53
2019-04-20T03:03:00.135Z,23.03
2019-04-20T03:05:31.523Z,21.40
2019-04-20T03:08:08.900Z,20.20
2019-04-20T03:10:56.682Z,17.40
2019-04-20T03:13:20.970Z,19.20
2019-04-20T03:15:51.778Z,21.70
2019-04-20T03:18:23.120Z,17.77
2019-04-20T03:20:52.847Z,19.77
2019-04-20T03:23:30.036Z,23.47
2019-04-20T03:26:09.471Z,26.93
2019-04-20T03:29:01.463Z,22.10
2019-04-20T03:32:03.948Z,24.23
2019-04-20T03:34:38.429Z,25.07
2019-04-20T03:36:57.177Z,22.10
2019-04-20T03:39:16.532Z,22.40
2019-04-20T03:41:34.968Z,14.63
2019-04-20T03:44:03.189Z,19.23
2019-04-20T03:46:39.484Z,19.27
2019-04-20T03:49:22.733Z,21.27
2019-04-20T03:51:58.787Z,21.73
2019-04-20T03:54:30.906Z,17.13
2019-04-20T03:57:21.236Z,17.13
2019-04-20T04:00:04.699Z,19.20
2019-04-20T04:03:08.327Z,18.60
2019-04-20T04:05:34.157Z,21.00
2019-04-20T04:08:01.007Z,25.03
2019-04-20T04:10:35.973Z,18.77
2019-04-20T04:13:14.793Z,18.50
2019-04-20T04:15:53.279Z,17.90
2019-04-20T04:18:27.819Z,19.10
2019-04-20T04:20:59.560Z,17.73
2019-04-20T04:23:40.606Z,19.37
2019-04-20T04:26:12.401Z,19.07
2019-04-20T04:28:43.803Z,19.90
2019-04-20T04:31:16.551Z,18.37
2019-04-20T04:33:55.736Z,23.97
2019-04-20T04:36:18.178Z,17.60
2019-04-20T04:39:00.967Z,23.60
2019-04-20T04:41:26.741Z,19.80
2019-04-20T04:43:53.306Z,19.43
2019-04-20T04:46:12.295Z,19.20
2019-04-20T04:48:45.945Z,18.00
2019-04-20T04:51:22.167Z,18.10
2019-04-20T04:53:57.294Z,15.13
2019-04-20T04:56:20.590Z,13.43
2019-04-20T04:58:49.837Z,14.07
2019-04-20T05:01:24.877Z,17.37
2019-04-20T05:04:14.705Z,15.43
2019-04-20T05:06:38.675Z,15.20
2019-04-20T05:09:00.746Z,14.03
2019-04-20T05:11:28.077Z,13.53
2019-04-20T05:14:03.344Z,14.30
2019-04-20T05:16:51.035Z,14.83
2019-04-20T05:19:23.534Z,16.60
2019-04-20T05:22:03.934Z,12.70
2019-04-20T05:24:33.774Z,12.90
2019-04-20T05:27:30.183Z,12.83
2019-04-20T05:29:41.352Z,13.23
2019-04-20T05:32:17.031Z,16.07
2019-04-20T05:35:05.014Z,14.73
2019-04-20T05:37:47.534Z,9.83
2019-04-20T05:40:10.663Z,14.10
2019-04-20T05:42:48.540Z,11.00
2019-04-20T05:45:18.235Z,10.13
2019-04-20T05:47:49.603Z,10.33
2019-04-20T05:50:27.403Z,7.63
2019-04-20T05:53:01.736Z,9.20
2019-04-20T05:55:27.827Z,9.03
2019-04-20T05:58:01.964Z,7.40
2019-04-20T06:00:38.104Z,6.53
2019-04-20T06:03:06.113Z,9.07
2019-04-20T06:05:49.526Z,10.20
2019-04-20T06:08:20.416Z,8.03
2019-04-20T06:10:45.406Z,7.57
2019-04-20T06:13:27.739Z,7.83
2019-04-20T06:16:08.860Z,7.80
2019-04-20T06:18:45.898Z,9.70
2019-04-20T06:21:31.322Z,10.07
2019-04-20T06:24:10.593Z,8.40
2019-04-20T06:26:56.539Z,9.93
2019-04-20T06:29:20.619Z,8.60
2019-04-20T06:31:53.481Z,8.73
2019-04-20T06:37:10.060Z,11.33
2019-04-20T06:42:10.805Z,7.10
2019-04-20T06:44:35.404Z,7.83
2019-04-20T06:47:24.109Z,6.40
2019-04-20T06:49:56.459Z,14.83
2019-04-20T06:52:27.398Z,8.93
2019-04-20T06:55:08.737Z,7.00
2019-04-20T06:57:45.252Z,6.63
2019-04-20T07:00:20.823Z,7.53
2019-04-20T07:02:48.350Z,8.87
2019-04-20T07:08:02.019Z,12.73
2019-04-20T07:10:44.027Z,14.77
2019-04-20T07:12:55.232Z,5.13
2019-04-20T07:15:29.045Z,15.70
2019-04-20T07:18:23.008Z,5.97
2019-04-20T07:21:03.636Z,9.90
2019-04-20T07:23:37.007Z,4.60
2019-04-20T07:26:12.804Z,11.93
2019-04-20T07:28:41.047Z,38.37
2019-04-20T07:31:11.517Z,12.60
2019-04-20T07:33:41.586Z,9.17
2019-04-20T07:36:20.054Z,5.33
2019-04-20T07:38:48.834Z,26.50
2019-04-20T07:41:21.613Z,19.80
2019-04-20T07:43:59.059Z,7.80
2019-04-20T07:46:34.881Z,5.23
2019-04-20T07:48:54.386Z,4.77
2019-04-20T07:51:12.532Z,9.47
2019-04-20T07:53:51.961Z,6.80
2019-04-20T07:56:34.665Z,4.37
2019-04-20T07:58:48.017Z,7.07
2019-04-20T08:01:44.920Z,7.37
2019-04-20T08:04:18.618Z,4.73
2019-04-20T08:06:38.094Z,10.77
2019-04-20T08:09:17.932Z,5.70
2019-04-20T08:11:55.442Z,6.27
2019-04-20T08:14:33.122Z,13.43
2019-04-20T08:19:27.298Z,46.90
2019-04-20T08:22:04.647Z,7.17
2019-04-20T08:24:27.681Z,10.23
2019-04-20T08:26:55.914Z,9.03
2019-04-20T08:29:42.713Z,8.37
2019-04-20T08:32:25.970Z,23.80
2019-04-20T08:34:59.430Z,7.23
2019-04-20T08:37:29.610Z,3.63
2019-04-20T08:40:06.942Z,6.77
2019-04-20T08:42:49.611Z,5.77
2019-04-20T08:45:16.598Z,7.03
2019-04-20T08:47:49.898Z,5.67
2019-04-20T08:50:27.051Z,6.77
2019-04-20T08:55:19.685Z,8.73
2019-04-20T08:57:31.597Z,4.87
2019-04-20T09:00:04.715Z,5.50
2019-04-20T09:02:34.667Z,8.87
2019-04-20T09:05:13.514Z,9.67
2019-04-20T09:07:53.843Z,5.27
2019-04-20T09:10:35.724Z,14.07
2019-04-20T09:12:57.293Z,13.03
2019-04-20T09:15:16.851Z,7.50
2019-04-20T09:18:01.937Z,10.57
2019-04-20T09:20:42.460Z,6.53
2019-04-20T09:23:21.367Z,5.17
2019-04-20T09:26:00.343Z,6.57
2019-04-20T09:28:40.530Z,8.60
2019-04-20T09:31:31.373Z,6.93
2019-04-20T09:34:20.263Z,11.57
2019-04-20T09:37:16.474Z,9.37
2019-04-20T09:40:03.372Z,11.47
2019-04-20T09:42:21.315Z,5.87
2019-04-20T09:44:58.054Z,5.77
2019-04-20T09:47:34.491Z,4.07
2019-04-20T09:50:18.763Z,5.92
2019-04-20T09:52:49.245Z,7.67
2019-04-20T09:55:14.909Z,10.87
2019-04-20T09:57:54.060Z,6.57
2019-04-20T10:00:25.725Z,8.93
2019-04-20T10:02:39.921Z,6.47
2019-04-20T10:05:12.010Z,5.30
2019-04-20T10:07:43.773Z,9.08
2019-04-20T10:10:26.057Z,7.27
2019-04-20T10:12:46.144Z,5.10
2019-04-20T10:15:20.950Z,4.93
2019-04-20T10:17:48.236Z,6.20
2019-04-20T10:20:26.981Z,7.17
2019-04-20T10:22:50.902Z,4.60
2019-04-20T10:25:22.548Z,4.27
2019-04-20T10:27:53.544Z,9.33
2019-04-20T10:30:23.760Z,5.47
2019-04-20T10:32:55.710Z,6.60
2019-04-20T10:35:27.531Z,5.20
2019-04-20T10:38:05.466Z,8.87
2019-04-20T10:40:46.431Z,20.10
2019-04-20T10:43:08.080Z,7.77
2019-04-20T10:45:39.178Z,5.07
2019-04-20T10:48:09.418Z,4.47
2019-04-20T10:50:40.835Z,6.42
2019-04-20T10:53:12.088Z,9.17
2019-04-20T10:55:43.165Z,24.32
2019-04-20T10:58:13.669Z,5.50
2019-04-20T11:00:46.115Z,15.85
2019-04-20T11:03:17.781Z,9.97
2019-04-20T11:05:48.907Z,5.28
2019-04-20T11:08:20.390Z,8.18
2019-04-20T11:11:02.034Z,4.83
2019-04-20T11:13:23.522Z,4.73
2019-04-20T11:15:54.721Z,13.20
2019-04-20T11:18:25.170Z,12.13
2019-04-20T11:20:55.453Z,4.97
2019-04-20T11:23:26.602Z,4.37
2019-04-20T11:25:57.971Z,4.30
2019-04-20T11:28:28.277Z,17.57
2019-04-20T11:30:58.559Z,9.37
2019-04-20T11:33:30.033Z,3.53
2019-04-20T11:36:01.106Z,15.03
2019-04-20T11:38:31.373Z,8.90
2019-04-20T11:41:11.196Z,6.87
2019-04-20T11:43:33.911Z,6.27
2019-04-20T11:46:04.787Z,5.80
2019-04-20T11:48:35.045Z,3.87
2019-04-20T11:51:05.509Z,3.55
2019-04-20T11:53:36.383Z,4.20
2019-04-20T11:56:13.454Z,2.73
2019-04-20T11:58:38.863Z,15.00
2019-04-20T12:01:54.236Z,13.62
2019-04-20T12:04:34.096Z,6.10
2019-04-20T12:06:57.055Z,14.00
2019-04-20T12:09:27.323Z,80.90
2019-04-20T12:12:10.444Z,7.13
2019-04-20T12:14:30.458Z,3.45
2019-04-20T12:17:01.756Z,7.25
2019-04-20T12:19:35.921Z,5.20
2019-04-20T12:22:05.649Z,2.72
2019-04-20T12:24:36.204Z,1.85
2019-04-20T12:27:06.960Z,1.93
2019-04-20T12:29:38.392Z,1.87
2019-04-20T12:32:10.602Z,4.03
2019-04-20T12:34:41.307Z,5.67
2019-04-20T12:37:11.724Z,2.60
2019-04-20T12:39:42.843Z,3.10
2019-04-20T12:42:13.216Z,1.85
2019-04-20T12:44:43.804Z,1.07
2019-04-20T12:47:14.130Z,3.22
2019-04-20T12:49:45.467Z,4.60
2019-04-20T12:52:16.723Z,1.25
2019-04-20T12:54:47.972Z,2.62
2019-04-20T12:57:18.568Z,1.95
2019-04-20T12:59:49.618Z,4.22
2019-04-20T13:02:20.774Z,4.80
2019-04-20T13:04:51.191Z,3.20
2019-04-20T13:07:22.784Z,2.53
2019-04-20T13:09:54.778Z,3.33
2019-04-20T13:12:32.100Z,3.87
2019-04-20T13:15:28.809Z,4.55
2019-04-20T13:17:59.457Z,2.83
2019-04-20T13:20:30.030Z,3.77
2019-04-20T13:23:02.717Z,4.62
2019-04-20T13:25:32.908Z,3.77
2019-04-20T13:28:03.358Z,2.17
2019-04-20T13:30:33.490Z,6.90
2019-04-20T13:33:03.989Z,2.85
2019-04-20T13:35:36.382Z,3.83
2019-04-20T13:38:07.896Z,4.28
2019-04-20T13:40:38.158Z,6.78
2019-04-20T13:43:08.323Z,4.42
2019-04-20T13:45:39.225Z,3.65
2019-04-20T13:48:10.923Z,6.33
2019-04-20T13:50:42.274Z,3.27
2019-04-20T13:53:12.466Z,4.50
2019-04-20T13:55:43.591Z,2.45
2019-04-20T13:58:31.835Z,2.50
2019-04-20T14:01:26.738Z,2.15
2019-04-20T14:04:10.785Z,1.30
2019-04-20T14:06:41.439Z,1.57
2019-04-20T14:09:12.453Z,2.70
2019-04-20T14:11:43.402Z,1.50
2019-04-20T14:14:15.057Z,2.65
2019-04-20T14:16:45.505Z,1.10
2019-04-20T14:19:16.691Z,2.90
2019-04-20T14:21:48.061Z,1.63
2019-04-20T14:24:19.154Z,1.60
2019-04-20T14:26:50.655Z,3.60
2019-04-20T14:29:20.966Z,1.45
2019-04-20T14:31:52.085Z,1.93
2019-04-20T14:34:22.734Z,1.50
2019-04-20T14:36:53.054Z,7.50
2019-04-20T14:39:24.453Z,3.22
2019-04-20T14:41:56.189Z,2.27
2019-04-20T14:44:27.884Z,2.57
2019-04-20T14:46:58.072Z,1.60
2019-04-20T14:49:28.543Z,3.97
2019-04-20T14:52:00.685Z,2.17
2019-04-20T14:54:31.819Z,2.17
2019-04-20T14:57:03.325Z,6.07
2019-04-20T14:59:47.494Z,3.73
2019-04-20T15:02:19.912Z,11.50
2019-04-20T15:04:52.646Z,4.67
2019-04-20T15:07:23.045Z,2.47
2019-04-20T15:09:53.225Z,5.83
2019-04-20T15:12:35.073Z,4.60
2019-04-20T15:14:58.777Z,14.00
2019-04-20T15:17:41.681Z,23.40
2019-04-20T15:20:33.626Z,7.77
2019-04-20T15:23:10.205Z,3.63
2019-04-20T15:25:40.389Z,4.73
2019-04-20T15:28:10.529Z,3.57
2019-04-20T15:30:40.734Z,5.00
2019-04-20T15:33:10.956Z,5.03
2019-04-20T15:35:42.024Z,9.27
2019-04-20T15:38:13.294Z,6.10
2019-04-20T15:40:44.879Z,4.83
2019-04-20T15:43:19.415Z,3.67
2019-04-20T15:45:47.521Z,11.93
2019-04-20T15:48:17.771Z,6.67
2019-04-20T15:50:47.889Z,3.83
2019-04-20T15:53:19.635Z,3.00
2019-04-20T15:55:50.896Z,3.27
2019-04-20T15:58:22.742Z,4.03
2019-04-20T16:00:54.525Z,4.17
2019-04-20T16:03:35.429Z,2.90
2019-04-20T16:06:07.464Z,3.50
2019-04-20T16:08:38.973Z,6.13
2019-04-20T16:11:09.346Z,8.73
2019-04-20T16:13:43.966Z,3.03
2019-04-20T16:16:12.183Z,8.60
2019-04-20T16:18:43.233Z,3.60
2019-04-20T16:21:20.140Z,8.90
2019-04-20T16:24:01.123Z,5.80
2019-04-20T16:26:53.710Z,4.27
2019-04-20T16:29:24.000Z,3.83
2019-04-20T16:31:54.390Z,3.27
2019-04-20T16:34:25.403Z,5.63
2019-04-20T16:36:56.908Z,4.80
2019-04-20T16:39:28.283Z,6.77
2019-04-20T16:41:58.744Z,4.77
2019-04-20T16:44:29.318Z,3.93
2019-04-20T16:47:00.489Z,5.27
2019-04-20T16:49:30.714Z,5.13
2019-04-20T16:52:00.921Z,4.97
2019-04-20T16:54:32.060Z,16.97
2019-04-20T16:57:02.608Z,6.47
2019-04-20T16:59:42.339Z,7.97
2019-04-20T17:02:04.769Z,5.20
2019-04-20T17:04:35.590Z,8.17
2019-04-20T17:07:24.906Z,4.83
2019-04-20T17:09:55.929Z,6.33
2019-04-20T17:12:29.980Z,8.87
2019-04-20T17:15:01.360Z,8.53
2019-04-20T17:17:31.700Z,9.77
2019-04-20T17:20:02.005Z,10.10
2019-04-20T17:22:32.113Z,8.43
2019-04-20T17:25:02.264Z,15.17
2019-04-20T17:27:57.655Z,11.23
2019-04-20T17:30:59.289Z,14.10
2019-04-20T17:33:52.431Z,13.77
2019-04-20T17:36:17.563Z,8.53
2019-04-20T17:38:48.492Z,11.20
2019-04-20T17:41:36.244Z,11.53
2019-04-20T17:44:05.670Z,13.53
2019-04-20T17:46:34.658Z,11.63
2019-04-20T17:49:03.129Z,21.90
2019-04-20T17:51:47.574Z,18.23
2019-04-20T17:54:22.352Z,14.30
2019-04-20T17:56:53.962Z,14.37
2019-04-20T17:59:24.504Z,20.80
2019-04-20T18:02:36.744Z,27.17
2019-04-20T18:05:22.325Z,18.77
2019-04-20T18:07:46.321Z,12.37
2019-04-20T18:10:17.525Z,11.77
2019-04-20T18:12:39.843Z,13.17
2019-04-20T18:15:23.060Z,14.60
2019-04-20T18:18:10.318Z,30.23
2019-04-20T18:20:43.059Z,21.87
2019-04-20T18:23:13.166Z,26.23
2019-04-20T18:26:06.400Z,36.43
2019-04-20T18:28:32.673Z,32.73
2019-04-20T18:31:03.430Z,30.53
2019-04-20T18:33:33.560Z,21.47
2019-04-20T18:36:02.554Z,21.17
2019-04-20T18:38:39.250Z,16.27
2019-04-20T18:41:08.917Z,17.97
2019-04-20T18:43:42.637Z,14.77
2019-04-20T18:46:28.082Z,16.53
2019-04-20T18:49:01.069Z,15.27
2019-04-20T18:51:12.540Z,17.37
2019-04-20T18:53:48.264Z,16.63
2019-04-20T18:56:26.793Z,21.83
2019-04-20T18:58:49.328Z,25.40
2019-04-20T19:01:29.561Z,23.47
2019-04-20T19:03:52.299Z,22.27
2019-04-20T19:06:23.448Z,22.40
2019-04-20T19:08:55.334Z,19.93
2019-04-20T19:11:27.174Z,26.03
2019-04-20T19:14:33.568Z,22.67
2019-04-20T19:17:11.092Z,32.77
2019-04-20T19:19:46.086Z,24.63
2019-04-20T19:22:14.251Z,28.33
2019-04-20T19:24:45.038Z,30.77
2019-04-20T19:27:17.321Z,24.93
2019-04-20T19:29:56.413Z,23.20
2019-04-20T19:32:34.747Z,16.43
2019-04-20T19:35:02.863Z,18.70
2019-04-20T19:37:28.527Z,16.70
2019-04-20T19:40:09.601Z,18.73
2019-04-20T19:42:39.745Z,18.93
2019-04-20T19:45:26.120Z,13.17
2019-04-20T19:47:48.006Z,21.83
2019-04-20T19:50:31.367Z,21.80
2019-04-20T19:52:58.600Z,20.23
2019-04-20T19:55:25.588Z,22.67
2019-04-20T19:57:56.612Z,16.87
2019-04-20T20:00:12.442Z,21.90
2019-04-20T20:02:43.481Z,18.27
2019-04-20T20:05:16.277Z,18.93
2019-04-20T20:07:49.192Z,22.37
2019-04-20T20:10:20.912Z,22.73
2019-04-20T20:12:56.948Z,15.63
2019-04-20T20:15:27.877Z,18.77
2019-04-20T20:18:12.432Z,20.80
2019-04-20T20:20:47.630Z,20.27
2019-04-20T20:23:00.053Z,18.90
2019-04-20T20:25:34.338Z,24.87
2019-04-20T20:28:14.534Z,21.27
2019-04-20T20:30:48.108Z,18.53
2019-04-20T20:33:23.828Z,35.43
2019-04-20T20:35:50.704Z,24.33
2019-04-20T20:38:19.178Z,21.57
2019-04-20T20:40:55.027Z,24.00
2019-04-20T20:43:23.078Z,28.63
2019-04-20T20:46:03.596Z,24.43
2019-04-20T20:48:34.000Z,23.60
2019-04-20T20:51:03.783Z,23.93
2019-04-20T20:53:37.989Z,21.60
2019-04-20T20:56:01.850Z,28.50
2019-04-20T20:58:37.478Z,26.30
2019-04-20T21:01:04.351Z,25.30
2019-04-20T21:03:34.343Z,27.67
2019-04-20T21:05:59.922Z,25.87
2019-04-20T21:08:31.443Z,27.33
2019-04-20T21:11:04.856Z,26.30
2019-04-20T21:13:39.461Z,26.53
2019-04-20T21:16:13.574Z,32.60
2019-04-20T21:18:53.825Z,27.73
2019-04-20T21:21:21.914Z,33.53
2019-04-20T21:23:48.128Z,40.40
2019-04-20T21:26:20.248Z,32.03
2019-04-20T21:28:45.748Z,36.37
2019-04-20T21:31:23.310Z,37.03
2019-04-20T21:33:49.068Z,36.03
2019-04-20T21:36:24.663Z,42.57
2019-04-20T21:38:51.853Z,34.63
2019-04-20T21:41:24.346Z,41.17
2019-04-20T21:43:54.336Z,39.13
2019-04-20T21:46:24.936Z,42.60
2019-04-20T21:49:08.442Z,46.97
2019-04-20T21:51:37.037Z,41.37
2019-04-20T21:54:01.432Z,42.23
2019-04-20T21:56:30.729Z,49.57
2019-04-20T21:59:04.224Z,47.47
2019-04-20T22:01:39.048Z,47.87
2019-04-20T22:04:06.039Z,53.67
2019-04-20T22:06:36.322Z,44.60
2019-04-20T22:09:10.733Z,49.17
2019-04-20T22:11:41.996Z,45.40
2019-04-20T22:14:18.474Z,37.63
2019-04-20T22:16:49.555Z,38.67
2019-04-20T22:19:31.602Z,39.37
2019-04-20T22:22:00.532Z,35.30
2019-04-20T22:24:40.023Z,39.63
2019-04-20T22:27:03.340Z,36.33
2019-04-20T22:29:24.153Z,44.57
2019-04-20T22:32:02.680Z,41.10
2019-04-20T22:34:28.093Z,45.47
2019-04-20T22:36:58.193Z,34.80
2019-04-20T22:39:39.399Z,36.43
2019-04-20T22:42:08.957Z,39.07
2019-04-20T22:44:36.335Z,34.67
2019-04-20T22:47:13.792Z,29.07
2019-04-20T22:49:53.160Z,32.03
2019-04-20T22:52:26.637Z,31.23
2019-04-20T22:55:01.138Z,29.27
2019-04-20T22:57:31.631Z,29.43
2019-04-20T22:59:53.898Z,34.27
2019-04-20T23:02:22.948Z,30.77
2019-04-20T23:04:53.099Z,31.07
2019-04-20T23:07:23.590Z,32.60
2019-04-20T23:09:57.699Z,25.93
2019-04-20T23:12:27.565Z,36.97
2019-04-20T23:14:58.565Z,25.63
2019-04-20T23:17:35.979Z,27.50
2019-04-20T23:20:03.232Z,29.53
2019-04-20T23:22:36.858Z,26.97
2019-04-20T23:25:04.945Z,30.10
2019-04-20T23:27:37.289Z,31.90
2019-04-20T23:30:13.472Z,32.63
2019-04-20T23:32:39.914Z,26.90
2019-04-20T23:35:15.032Z,24.93
2019-04-20T23:37:43.781Z,28.77
2019-04-20T23:40:16.405Z,28.27
2019-04-20T23:42:55.705Z,32.27
2019-04-20T23:45:43.853Z,26.37
2019-04-20T23:48:16.213Z,29.03
2019-04-20T23:50:59.633Z,28.80
2019-04-20T23:53:32.236Z,28.33
2019-04-20T23:55:50.318Z,34.70
2019-04-20T23:58:21.173Z,30.57
